createdAt,value
2023-05-18T00:03:38.978Z,99439.91
2023-05-18T00:08:40.973Z,99443.13
2023-05-18T00:13:42.832Z,99448.21
2023-05-18T00:18:45.171Z,99453.70
2023-05-18T00:23:49.589Z,99455.70
2023-05-18T00:28:51.295Z,99454.46
2023-05-18T00:33:53.047Z,99455.07
2023-05-18T00:38:54.900Z,99452.09
2023-05-18T00:43:57.685Z,99459.60
2023-05-18T00:49:01.816Z,99456.98
2023-05-18T00:54:04.560Z,99455.43
2023-05-18T00:59:06.395Z,99459.07
2023-05-18T01:04:10.090Z,99462.14
2023-05-18T01:09:13.538Z,99463.48
2023-05-18T01:14:31.862Z,99466.06
2023-05-18T01:19:52.017Z,99466.45
2023-05-18T01:24:59.858Z,99467.95
2023-05-18T01:30:02.563Z,99468.42
2023-05-18T01:35:04.886Z,99473.52
2023-05-18T01:40:09.335Z,99482.36
2023-05-18T01:45:21.411Z,99488.93
2023-05-18T01:50:37.688Z,99492.19
2023-05-18T01:55:41.244Z,99496.98
2023-05-18T02:00:44.028Z,99499.52
2023-05-18T02:05:45.913Z,99504.90
2023-05-18T02:10:47.660Z,99504.08
2023-05-18T02:15:49.765Z,99508.96
2023-05-18T02:20:51.576Z,99512.00
2023-05-18T02:25:56.733Z,99512.53
2023-05-18T02:31:06.994Z,99510.67
2023-05-18T02:36:13.586Z,99517.48
2023-05-18T02:41:16.599Z,99519.13
2023-05-18T02:46:18.355Z,99518.41
2023-05-18T02:51:21.718Z,99520.08
2023-05-18T02:56:24.728Z,99524.58
2023-05-18T03:01:37.234Z,99529.23
2023-05-18T03:06:40.201Z,99529.42
2023-05-18T03:11:42.070Z,99541.27
2023-05-18T03:16:44.377Z,99539.77
2023-05-18T03:21:49.497Z,99542.04
2023-05-18T03:26:54.472Z,99543.45
2023-05-18T03:31:56.565Z,99557.29
2023-05-18T03:36:58.601Z,99560.73
2023-05-18T03:42:00.881Z,99563.89
2023-05-18T03:47:04.240Z,99569.10
2023-05-18T03:52:07.598Z,99572.11
2023-05-18T03:57:09.360Z,99581.81
2023-05-18T04:02:12.190Z,99586.30
2023-05-18T04:07:17.693Z,99592.90
2023-05-18T04:12:19.534Z,99590.04
2023-05-18T04:17:24.531Z,99592.96
2023-05-18T04:22:31.196Z,99589.41
2023-05-18T04:27:33.270Z,99594.54
2023-05-18T04:32:36.998Z,99593.58
2023-05-18T04:37:42.885Z,99599.35
2023-05-18T04:42:48.954Z,99601.60
2023-05-18T04:48:02.116Z,99605.80
2023-05-18T04:53:07.722Z,99606.75
2023-05-18T04:58:10.389Z,99607.30
2023-05-18T05:03:12.325Z,99609.65
2023-05-18T05:08:14.165Z,99611.29
2023-05-18T05:13:16.089Z,99610.64
2023-05-18T05:18:18.016Z,99613.88
2023-05-18T05:23:19.761Z,99613.77
2023-05-18T05:28:21.708Z,99615.14
2023-05-18T05:33:23.474Z,99613.02
2023-05-18T05:38:27.648Z,99617.26
2023-05-18T05:43:30.620Z,99615.58
2023-05-18T05:48:32.491Z,99617.23
2023-05-18T05:53:34.276Z,99622.54
2023-05-18T05:58:36.182Z,99624.97
2023-05-18T06:03:38.830Z,99627.34
2023-05-18T06:08:45.559Z,99631.48
2023-05-18T06:13:48.516Z,99635.01
2023-05-18T06:18:51.768Z,99637.86
2023-05-18T06:23:56.762Z,99641.30
2023-05-18T06:29:16.566Z,99642.45
2023-05-18T06:34:45.962Z,99645.59
2023-05-18T06:39:50.905Z,99644.85
2023-05-18T06:44:58.041Z,99645.94
2023-05-18T06:50:20.749Z,99652.65
2023-05-18T06:55:23.758Z,99656.23
2023-05-18T07:00:32.296Z,99650.92
2023-05-18T07:05:35.714Z,99650.27
2023-05-18T07:10:38.716Z,99655.23
2023-05-18T07:15:40.469Z,99656.29
2023-05-18T07:20:42.283Z,99664.72
2023-05-18T07:25:43.950Z,99668.84
2023-05-18T07:30:45.660Z,99666.21
2023-05-18T07:35:47.421Z,99667.84
2023-05-18T07:40:49.154Z,99676.49
2023-05-18T07:45:50.837Z,99680.91
2023-05-18T07:50:52.913Z,99682.94
2023-05-18T07:55:54.728Z,99683.17
2023-05-18T08:00:56.447Z,99681.86
2023-05-18T08:05:58.234Z,99689.20
2023-05-18T08:10:59.934Z,99686.99
2023-05-18T08:16:11.215Z,99688.27
2023-05-18T08:21:13.705Z,99689.59
2023-05-18T08:26:15.402Z,99697.92
2023-05-18T08:31:17.186Z,99700.35
2023-05-18T08:36:18.978Z,99701.52
2023-05-18T08:41:26.564Z,99702.98
2023-05-18T08:46:42.665Z,99698.51
2023-05-18T08:51:50.459Z,99691.77
2023-05-18T08:56:53.500Z,99701.52
2023-05-18T09:01:55.528Z,99702.30
2023-05-18T09:07:00.126Z,99699.92
2023-05-18T09:12:01.933Z,99698.73
2023-05-18T09:17:04.049Z,99701.35
2023-05-18T09:22:06.555Z,99702.58
2023-05-18T09:27:08.279Z,99707.33
2023-05-18T09:32:10.998Z,99710.39
2023-05-18T09:37:16.814Z,99715.37
2023-05-18T09:42:18.614Z,99712.96
2023-05-18T09:47:20.426Z,99717.41
2023-05-18T09:52:22.185Z,99711.93
2023-05-18T09:57:24.056Z,99708.17
2023-05-18T10:02:25.928Z,99715.73
2023-05-18T10:07:27.777Z,99712.09
2023-05-18T10:12:30.816Z,99712.67
2023-05-18T10:17:33.856Z,99708.67
2023-05-18T10:22:37.258Z,99711.93
2023-05-18T10:27:39.658Z,99710.92
2023-05-18T10:32:43.598Z,99711.40
2023-05-18T10:37:50.330Z,99705.88
2023-05-18T10:42:56.539Z,99705.70
2023-05-18T10:48:00.596Z,99705.85
2023-05-18T10:53:03.418Z,99683.73
2023-05-18T10:58:14.306Z,99712.90
2023-05-18T11:03:18.141Z,99700.30
2023-05-18T11:08:27.028Z,99685.58
2023-05-18T11:13:31.213Z,99702.55
2023-05-18T11:18:36.357Z,99704.17
2023-05-18T11:23:38.478Z,99703.09
2023-05-18T11:28:43.490Z,99702.27
2023-05-18T11:33:45.418Z,99709.83
2023-05-18T11:38:53.029Z,99711.62
2023-05-18T11:44:14.882Z,99711.88
2023-05-18T11:49:18.236Z,99716.86
2023-05-18T11:54:20.466Z,99723.23
2023-05-18T11:59:37.807Z,99722.80
2023-05-18T12:04:48.051Z,99731.13
2023-05-18T12:09:50.001Z,99728.60
2023-05-18T12:14:57.484Z,99728.96
2023-05-18T12:19:59.355Z,99734.68
2023-05-18T12:25:01.026Z,99735.06
2023-05-18T12:30:02.976Z,99737.08
2023-05-18T12:35:06.362Z,99735.91
2023-05-18T12:40:08.319Z,99737.83
2023-05-18T12:45:11.391Z,99737.36
2023-05-18T12:50:13.277Z,99731.01
2023-05-18T12:55:21.891Z,99728.84
2023-05-18T13:00:23.826Z,99728.89
2023-05-18T13:05:25.696Z,99727.58
2023-05-18T13:10:31.150Z,99729.05
2023-05-18T13:15:35.867Z,99730.40
2023-05-18T13:20:50.941Z,99725.43
2023-05-18T13:25:52.782Z,99727.13
2023-05-18T13:30:54.586Z,99726.30
2023-05-18T13:35:56.338Z,99722.56
2023-05-18T13:40:58.049Z,99723.54
2023-05-18T13:45:59.925Z,99719.02
2023-05-18T13:51:01.766Z,99718.04
2023-05-18T13:56:03.847Z,99719.09
2023-05-18T14:01:09.097Z,99720.80
2023-05-18T14:06:28.152Z,99718.44
2023-05-18T14:11:29.936Z,99718.48
2023-05-18T14:16:31.888Z,99715.46
2023-05-18T14:21:33.770Z,99717.95
2023-05-18T14:26:36.555Z,99717.70
2023-05-18T14:31:38.409Z,99718.07
2023-05-18T14:36:40.282Z,99711.58
2023-05-18T14:41:41.989Z,99710.80
2023-05-18T14:46:43.760Z,99712.66
2023-05-18T14:51:45.469Z,99716.61
2023-05-18T14:56:47.369Z,99709.36
2023-05-18T15:01:49.105Z,99716.33
2023-05-18T15:06:51.042Z,99717.19
2023-05-18T15:11:52.723Z,99718.77
2023-05-18T15:16:54.422Z,99719.42
2023-05-18T15:21:56.215Z,99721.71
2023-05-18T15:26:57.955Z,99731.58
2023-05-18T15:31:59.832Z,99734.64
2023-05-18T15:37:01.660Z,99739.23
2023-05-18T15:42:04.943Z,99744.34
2023-05-18T15:47:07.049Z,99747.81
2023-05-18T15:52:08.890Z,99749.16
2023-05-18T15:57:10.888Z,99751.63
2023-05-18T16:02:12.747Z,99749.99
2023-05-18T16:07:15.432Z,99749.34
2023-05-18T16:13:48.119Z,99749.61
2023-05-18T16:24:44.379Z,99758.02
2023-05-18T16:29:46.145Z,99759.30
2023-05-18T16:34:47.903Z,99759.51
2023-05-18T16:39:49.809Z,99764.05
2023-05-18T16:44:51.980Z,99768.09
2023-05-18T16:49:53.697Z,99771.70
2023-05-18T16:54:55.442Z,99773.58
2023-05-18T16:59:57.197Z,99776.87
2023-05-18T17:04:59.021Z,99773.44
2023-05-18T17:10:05.564Z,99773.77
2023-05-18T17:15:08.617Z,99771.16
2023-05-18T17:20:11.567Z,99766.54
2023-05-18T17:25:13.380Z,99772.48
2023-05-18T17:30:15.255Z,99772.19
2023-05-18T17:35:17.523Z,99772.70
2023-05-18T17:40:19.237Z,99769.29
2023-05-18T17:45:21.528Z,99764.96
2023-05-18T17:50:23.260Z,99763.23
2023-05-18T17:55:25.036Z,99764.33
2023-05-18T18:00:26.889Z,99763.91
2023-05-18T18:05:28.735Z,99765.45
2023-05-18T18:10:32.093Z,99769.00
2023-05-18T18:15:34.157Z,99766.60
2023-05-18T18:20:36.819Z,99769.56
2023-05-18T18:25:38.883Z,99771.22
2023-05-18T18:30:44.105Z,99769.50
2023-05-18T18:35:46.265Z,99768.15
2023-05-18T18:40:48.404Z,99772.95
2023-05-18T18:45:50.148Z,99778.87
2023-05-18T18:50:52.708Z,99777.38
2023-05-18T18:55:54.870Z,99784.83
2023-05-18T19:00:56.760Z,99782.42
2023-05-18T19:05:58.805Z,99784.42
2023-05-18T19:11:00.726Z,99785.61
2023-05-18T19:16:02.629Z,99789.70
2023-05-18T19:21:04.341Z,99791.56
2023-05-18T19:26:06.253Z,99792.27
2023-05-18T19:31:10.397Z,99790.86
2023-05-18T19:36:13.780Z,99774.63
2023-05-18T19:41:15.496Z,99790.28
2023-05-18T19:46:19.101Z,99788.04
2023-05-18T19:51:20.907Z,99793.48
2023-05-18T19:56:22.682Z,99790.45
2023-05-18T20:01:24.943Z,99794.78
2023-05-18T20:06:31.874Z,99800.27
2023-05-18T20:11:41.105Z,99806.16
2023-05-18T20:16:43.440Z,99805.84
2023-05-18T20:21:48.540Z,99807.51
2023-05-18T20:26:50.918Z,99808.59
2023-05-18T20:31:54.681Z,99801.73
2023-05-18T20:36:56.751Z,99803.48
2023-05-18T20:41:59.528Z,99808.73
2023-05-18T20:47:01.621Z,99806.05
2023-05-18T20:52:03.521Z,99804.17
2023-05-18T20:57:05.416Z,99800.84
2023-05-18T21:02:07.633Z,99803.91
2023-05-18T21:07:10.103Z,99802.65
2023-05-18T21:12:12.482Z,99809.00
2023-05-18T21:17:15.972Z,99807.16
2023-05-18T21:22:17.737Z,99805.15
2023-05-18T21:27:19.467Z,99798.70
2023-05-18T21:32:21.285Z,99800.77
2023-05-18T21:37:23.177Z,99800.94
2023-05-18T21:42:25.919Z,99799.43
2023-05-18T21:47:29.477Z,99806.86
2023-05-18T21:52:33.238Z,99802.56
2023-05-18T21:57:35.492Z,99802.31
2023-05-18T22:02:37.241Z,99805.67
2023-05-18T22:07:39.096Z,99804.55
2023-05-18T22:12:43.312Z,99803.08
2023-05-18T22:17:46.175Z,99799.31
2023-05-18T22:22:48.036Z,99801.65
2023-05-18T22:27:49.735Z,99801.11
2023-05-18T22:32:52.013Z,99797.65
2023-05-18T22:37:53.817Z,99796.36
2023-05-18T22:42:55.818Z,99795.50
2023-05-18T22:48:02.237Z,99787.86
2023-05-18T22:53:04.392Z,99786.64
2023-05-18T22:58:06.348Z,99791.89
2023-05-18T23:03:08.237Z,99787.12
2023-05-18T23:08:10.265Z,99787.30
2023-05-18T23:13:16.080Z,99785.10
2023-05-18T23:18:18.166Z,99787.25
2023-05-18T23:23:20.471Z,99790.99
2023-05-18T23:28:22.270Z,99792.51
2023-05-18T23:33:25.498Z,99790.21
2023-05-18T23:38:34.941Z,99788.06
2023-05-18T23:43:38.308Z,99789.19
2023-05-18T23:48:41.540Z,99788.52
2023-05-18T23:53:47.577Z,99787.65
2023-05-18T23:58:49.693Z,99786.60
